aviador You're here:

YCBP Decoded Metar

in
Report Time2018-01-16 20:00:00
UTC Time2018-01-16 21:05:10
Flight Rules vfr VFR
Wind100° at 11 kt
W.Decomp.*RWY 14: 8.4 kt HW 7.1 kt LCW
RWY 04: 5.5 kt HW 9.5 kt RCW
W.Rank100° ranks 23
Current wind is above 100° avg. (8.8)
Visibility9999 m
Phenomena:N/A
Clouds:N/A
Expected CloudBase > 10,400 ft AGL from Temp-Dew spread
CeilingNone
Temp27°C
Dew Point01°C (18% RH)
Heat Index26.0°C
AAT21.1°C
QNH1011 hPa
Raw Report
METAR YCBP 162000Z AUTO 10011KT 9999 // NCD 27/01 Q1011=

Extra information for YCBP:More info

Social comments